Time;durP1;ratioP1;P1;durP2;ratioP2;P2;SDS_P1;SDS_P2;PMS_P1;PMS_P2;Temp;Humidity;BMP_temperature;BMP_pressure;BME280_temperature;BME280_humidity;BME280_pressure;Samples;Min_cycle;Max_cycle;Signal;HPM_P1;HPM_P2
2021/08/15 00:02:24;;;;;;;24.05;8.77;;;;;;;19.80;65.82;100655.22;5074004;28;20481;-66
2021/08/15 00:04:51;;;;;;;19.77;7.78;;;;;;;19.72;66.33;100644.72;5072898;28;20106;-66
2021/08/15 00:07:19;;;;;;;18.65;7.63;;;;;;;19.52;66.63;100618.81;5073982;28;20131;-66
2021/08/15 00:09:46;;;;;;;17.88;8.52;;;;;;;19.46;67.03;100630.66;5065370;28;20566;-65
2021/08/15 00:12:12;;;;;;;17.27;9.13;;;;;;;19.47;67.20;100635.16;5053902;28;20131;-65
2021/08/15 00:14:39;;;;;;;18.63;8.50;;;;;;;19.35;67.48;100625.38;5053635;28;20492;-66
2021/08/15 00:17:07;;;;;;;15.57;6.60;;;;;;;19.17;67.86;100618.06;5053471;28;20135;-66
2021/08/15 00:19:33;;;;;;;19.17;8.05;;;;;;;19.26;68.16;100633.03;5036115;28;20072;-66
2021/08/15 00:22:01;;;;;;;15.05;7.65;;;;;;;19.30;68.12;100634.03;5059128;28;20583;-65
2021/08/15 00:24:28;;;;;;;18.25;7.60;;;;;;;19.36;67.94;100634.69;5073553;28;20547;-66
2021/08/15 00:26:54;;;;;;;20.33;7.65;;;;;;;19.43;67.76;100637.81;5069537;28;20123;-66
2021/08/15 00:29:21;;;;;;;18.50;8.35;;;;;;;19.49;67.65;100630.00;5053557;28;20136;-66
2021/08/15 00:31:48;;;;;;;23.10;9.18;;;;;;;19.44;67.37;100621.66;5063604;28;20460;-65
2021/08/15 00:34:15;;;;;;;20.20;8.05;;;;;;;19.55;67.48;100626.59;5073833;28;20044;-66
2021/08/15 00:36:42;;;;;;;20.27;7.63;;;;;;;19.58;67.50;100630.75;5073597;28;20127;-66
2021/08/15 00:39:09;;;;;;;20.10;6.88;;;;;;;19.51;67.36;100627.63;5073129;28;20436;-65
2021/08/15 00:41:35;;;;;;;16.00;7.68;;;;;;;19.52;67.68;100624.47;5072085;28;20508;-66
2021/08/15 00:44:03;;;;;;;22.02;8.13;;;;;;;19.51;67.77;100617.13;5062077;28;20135;-66
2021/08/15 00:46:30;;;;;;;22.42;8.07;;;;;;;19.46;67.68;100602.34;5053067;28;20068;-66
2021/08/15 00:48:57;;;;;;;23.80;10.40;;;;;;;19.47;67.46;100601.16;5067987;28;20140;-66
2021/08/15 00:51:24;;;;;;;25.52;8.98;;;;;;;19.49;67.92;100599.66;5073206;28;20045;-66
2021/08/15 00:53:51;;;;;;;19.35;8.43;;;;;;;19.55;68.16;100611.63;5075691;28;20044;-66
2021/08/15 00:56:18;;;;;;;17.25;8.23;;;;;;;19.54;67.83;100607.94;5081894;28;20139;-66
2021/08/15 00:58:44;;;;;;;21.63;9.07;;;;;;;19.42;68.06;100590.88;5093120;28;20079;-66
2021/08/15 01:01:11;;;;;;;22.05;10.18;;;;;;;19.47;68.19;100598.31;5068047;28;20072;-66
2021/08/15 01:03:39;;;;;;;17.63;9.00;;;;;;;19.47;68.33;100604.81;5061085;28;20450;-66
2021/08/15 01:06:07;;;;;;;21.40;10.00;;;;;;;19.46;68.16;100591.84;5055065;28;20197;-66
2021/08/15 01:08:37;;;;;;;23.13;7.47;;;;;;;19.46;68.27;100589.00;5072905;28;20045;-65
2021/08/15 01:11:05;;;;;;;19.80;7.70;;;;;;;19.39;68.12;100577.38;5071501;28;20051;-66
2021/08/15 01:13:33;;;;;;;19.10;7.90;;;;;;;19.28;68.48;100581.72;5072483;28;20308;-66
2021/08/15 01:16:02;;;;;;;17.95;7.57;;;;;;;19.20;68.97;100582.59;5071502;28;20123;-66
2021/08/15 01:18:34;;;;;;;22.10;9.73;;;;;;;19.05;69.01;100559.34;5058091;28;20056;-66
2021/08/15 01:21:03;;;;;;;19.33;9.13;;;;;;;19.03;68.70;100578.66;5052556;28;20069;-66
2021/08/15 01:23:34;;;;;;;22.10;9.10;;;;;;;18.78;70.00;100571.88;5052369;28;20135;-65
2021/08/15 01:26:06;;;;;;;23.52;10.75;;;;;;;18.69;70.26;100569.03;5065109;28;20037;-66
2021/08/15 01:28:33;;;;;;;21.58;10.60;;;;;;;18.56;70.60;100558.72;5052128;28;20148;-66
2021/08/15 01:31:00;;;;;;;23.30;10.40;;;;;;;18.74;70.47;100579.41;5052849;28;20049;-66
2021/08/15 01:33:32;;;;;;;33.33;11.45;;;;;;;18.74;70.44;100567.25;5072330;28;20062;-66
2021/08/15 01:36:01;;;;;;;42.53;11.82;;;;;;;18.75;70.52;100571.72;5058082;28;20139;-66
2021/08/15 01:38:30;;;;;;;29.33;9.43;;;;;;;18.64;70.49;100566.38;5072290;28;20123;-66
2021/08/15 01:40:57;;;;;;;25.77;9.90;;;;;;;18.58;70.67;100561.25;5072372;28;20084;-66
2021/08/15 01:43:25;;;;;;;29.20;10.68;;;;;;;18.47;71.40;100563.56;5072388;28;20127;-66
2021/08/15 01:45:52;;;;;;;33.45;11.90;;;;;;;18.36;71.56;100571.56;5071370;28;20110;-66
2021/08/15 01:48:19;;;;;;;37.53;10.90;;;;;;;18.38;71.09;100552.25;5072229;28;20207;-66
2021/08/15 01:50:47;;;;;;;55.45;13.27;;;;;;;18.64;70.82;100572.03;5072051;28;20123;-66
2021/08/15 01:53:16;;;;;;;36.00;13.13;;;;;;;18.70;70.38;100567.88;5051954;28;20132;-66
2021/08/15 01:55:43;;;;;;;35.65;11.40;;;;;;;18.80;70.36;100574.38;5069863;28;20048;-66
2021/08/15 01:58:11;;;;;;;31.38;11.65;;;;;;;18.84;70.16;100561.25;5072259;28;20072;-65
2021/08/15 02:00:40;;;;;;;48.53;13.45;;;;;;;18.97;69.92;100568.66;5054301;28;20132;-66
2021/08/15 02:03:09;;;;;;;44.50;11.07;;;;;;;18.97;70.10;100567.84;5070893;28;20056;-66
2021/08/15 02:05:39;;;;;;;52.78;12.32;;;;;;;18.96;69.93;100569.03;5072129;28;20295;-66
2021/08/15 02:08:06;;;;;;;37.55;11.30;;;;;;;18.95;69.74;100571.03;5068963;28;20045;-66
2021/08/15 02:10:33;;;;;;;32.75;9.63;;;;;;;18.81;70.12;100564.75;5034562;28;20114;-66
2021/08/15 02:13:02;;;;;;;51.45;10.63;;;;;;;18.52;70.01;100526.63;5051883;28;20137;-66
2021/08/15 02:15:29;;;;;;;63.10;12.35;;;;;;;18.61;70.35;100555.75;5052202;28;20056;-66
2021/08/15 02:17:58;;;;;;;55.92;10.93;;;;;;;18.69;70.09;100566.19;5064229;28;20044;-66
2021/08/15 02:20:25;;;;;;;35.90;10.15;;;;;;;18.61;70.74;100569.88;5072230;28;20086;-67
2021/08/15 02:22:52;;;;;;;34.63;10.10;;;;;;;18.48;70.66;100570.88;5070848;28;20127;-67
2021/08/15 02:25:20;;;;;;;36.38;8.32;;;;;;;18.34;71.17;100558.94;5053499;28;20130;-66
2021/08/15 02:27:48;;;;;;;42.25;8.63;;;;;;;18.01;72.12;100548.09;5071873;28;20091;-66
2021/08/15 02:30:18;;;;;;;54.28;10.55;;;;;;;17.96;72.31;100534.13;5072077;28;20052;-66
2021/08/15 02:32:45;;;;;;;45.33;10.35;;;;;;;17.89;72.91;100540.28;5070859;28;20123;-66
2021/08/15 02:35:14;;;;;;;38.10;10.18;;;;;;;17.85;72.73;100535.63;5071441;28;20457;-66
2021/08/15 02:37:42;;;;;;;36.35;10.45;;;;;;;17.86;72.76;100528.81;5071524;28;20131;-65
2021/08/15 02:40:11;;;;;;;47.08;11.52;;;;;;;18.01;72.50;100550.91;5070812;28;20127;-65
2021/08/15 02:42:41;;;;;;;42.40;10.50;;;;;;;18.02;72.81;100549.78;5068009;28;20128;-66
2021/08/15 02:45:09;;;;;;;40.75;11.50;;;;;;;18.02;72.83;100544.13;5055762;28;20099;-66
2021/08/15 02:47:36;;;;;;;36.55;10.60;;;;;;;18.08;72.48;100551.25;5055461;28;20081;-65
2021/08/15 02:50:04;;;;;;;57.88;12.65;;;;;;;18.08;72.62;100541.94;5063939;28;20094;-66
2021/08/15 02:52:31;;;;;;;41.92;10.68;;;;;;;18.06;73.10;100555.59;5075481;28;20500;-66
2021/08/15 02:54:58;;;;;;;21.52;7.13;;;;;;;17.88;73.69;100558.41;5073877;28;20053;-66
2021/08/15 02:57:24;;;;;;;31.90;8.02;;;;;;;17.71;74.21;100550.69;5075538;28;20130;-65
2021/08/15 02:59:51;;;;;;;26.75;8.07;;;;;;;17.52;74.80;100531.19;5065919;28;20132;-65
2021/08/15 03:02:19;;;;;;;22.30;9.00;;;;;;;17.44;74.97;100522.72;5055407;28;20137;-65
2021/08/15 03:04:46;;;;;;;21.58;7.70;;;;;;;17.50;75.44;100544.81;5055076;28;20488;-66
2021/08/15 03:07:15;;;;;;;18.15;8.23;;;;;;;17.49;75.33;100534.66;5055221;28;20103;-65
2021/08/15 03:09:43;;;;;;;29.75;10.45;;;;;;;17.52;75.27;100531.19;5066496;28;20123;-65
2021/08/15 03:12:10;;;;;;;29.08;9.57;;;;;;;17.47;75.18;100527.66;5075296;28;20127;-65
2021/08/15 03:14:40;;;;;;;20.92;9.32;;;;;;;17.45;75.47;100510.25;5073668;28;20091;-66
2021/08/15 03:17:08;;;;;;;;;;;;;;;17.69;74.90;100536.06;5063993;28;20055;-66
2021/08/15 03:19:36;;;;;;;18.95;8.05;;;;;;;17.79;73.80;100539.75;5055051;28;20009;-66
2021/08/15 03:22:07;;;;;;;19.20;9.18;;;;;;;17.85;73.49;100530.81;5063750;28;20178;-66
2021/08/15 03:24:34;;;;;;;22.80;9.60;;;;;;;18.09;73.07;100550.09;5074872;28;20440;-66
2021/08/15 03:27:01;;;;;;;28.67;9.45;;;;;;;18.19;72.61;100554.59;5056695;28;20080;-65
2021/08/15 03:29:28;;;;;;;29.73;10.88;;;;;;;18.19;72.19;100538.47;5074901;28;20076;-66
2021/08/15 03:31:55;;;;;;;35.75;11.25;;;;;;;18.32;72.07;100559.25;5073973;28;20095;-65
2021/08/15 03:34:22;;;;;;;30.15;12.55;;;;;;;18.30;71.75;100550.28;5073216;28;20528;-66
2021/08/15 03:36:50;;;;;;;27.05;11.48;;;;;;;18.43;71.81;100556.94;5073846;28;20480;-66
2021/08/15 03:39:17;;;;;;;31.60;12.20;;;;;;;18.38;71.28;100545.78;5074571;28;20088;-66
2021/08/15 03:41:44;;;;;;;35.10;13.15;;;;;;;18.51;71.62;100553.25;5073422;28;20127;-66
2021/08/15 03:44:11;;;;;;;35.78;13.23;;;;;;;18.54;71.43;100549.75;5074346;28;20048;-66
2021/08/15 03:46:40;;;;;;;31.25;12.20;;;;;;;18.67;71.29;100547.91;5074471;28;20079;-66
2021/08/15 03:49:07;;;;;;;43.30;14.47;;;;;;;18.76;71.50;100550.75;5074610;28;20458;-66
2021/08/15 03:51:33;;;;;;;48.30;13.85;;;;;;;18.82;71.18;100549.41;5065144;28;20080;-66
2021/08/15 03:54:00;;;;;;;48.58;16.02;;;;;;;18.95;71.33;100562.53;5058621;28;20123;-66
2021/08/15 03:56:27;;;;;;;56.72;15.23;;;;;;;19.00;71.28;100565.16;5094147;28;20086;-66
2021/08/15 03:58:54;;;;;;;58.33;16.55;;;;;;;18.97;71.17;100548.88;5089827;28;20461;-66
2021/08/15 04:01:21;;;;;;;40.50;13.20;;;;;;;19.07;71.14;100554.16;5074104;28;20131;-66
2021/08/15 04:03:48;;;;;;;92.32;16.75;;;;;;;19.22;70.93;100566.13;5074146;28;20458;-66
2021/08/15 04:06:21;;;;;;;102.95;17.65;;;;;;;19.29;71.12;100564.41;5073232;28;20458;-66
2021/08/15 04:08:51;;;;;;;126.10;18.73;;;;;;;19.10;70.81;100535.69;5056583;28;20045;-66
2021/08/15 04:11:18;;;;;;;48.85;16.48;;;;;;;19.24;70.68;100561.75;5053958;28;20099;-66
2021/08/15 04:13:46;;;;;;;164.00;22.67;;;;;;;19.27;70.80;100565.91;5053872;28;20037;-65
2021/08/15 04:16:13;;;;;;;111.03;19.52;;;;;;;19.24;70.82;100546.78;5054117;28;20053;-65
2021/08/15 04:18:40;;;;;;;176.18;22.55;;;;;;;19.36;70.60;100575.22;5059213;28;20048;-65
2021/08/15 04:21:07;;;;;;;112.88;19.95;;;;;;;19.35;70.41;100577.22;5073790;28;20496;-65
2021/08/15 04:23:34;;;;;;;174.98;21.40;;;;;;;19.38;70.45;100587.03;5072271;28;20139;-67
2021/08/15 04:26:02;;;;;;;226.23;24.92;;;;;;;19.39;70.17;100585.88;5054445;28;20140;-65
2021/08/15 04:28:29;;;;;;;132.50;19.30;;;;;;;19.24;70.10;100555.28;5056904;28;20122;-66
2021/08/15 04:30:56;;;;;;;328.77;27.02;;;;;;;19.35;70.29;100579.19;5073838;28;20124;-66
2021/08/15 04:33:26;;;;;;;129.75;21.23;;;;;;;19.23;70.20;100565.78;5073565;28;20048;-65
2021/08/15 04:35:53;;;;;;;;;;;;;;;19.27;70.03;100566.75;5073839;28;20045;-66
2021/08/15 04:38:23;;;;;;;91.20;17.73;;;;;;;19.28;70.25;100573.25;5072175;28;20380;-65
2021/08/15 04:40:51;;;;;;;99.95;17.85;;;;;;;19.27;70.21;100580.91;5054670;28;20083;-66
2021/08/15 04:43:19;;;;;;;189.30;26.40;;;;;;;19.01;70.24;100534.88;5062950;28;20108;-65
2021/08/15 04:45:48;;;;;;;79.80;18.30;;;;;;;19.27;70.50;100568.75;5073322;28;20079;-65
2021/08/15 04:48:15;;;;;;;167.40;24.65;;;;;;;19.24;70.50;100555.28;5072103;28;20130;-65
2021/08/15 04:50:43;;;;;;;242.80;28.75;;;;;;;19.26;70.53;100559.44;5073066;28;20087;-65
2021/08/15 04:53:11;;;;;;;193.50;23.92;;;;;;;19.33;70.38;100570.22;5073045;28;20048;-65
2021/08/15 04:55:38;;;;;;;208.98;24.25;;;;;;;19.35;70.24;100567.88;5071540;28;20527;-65
2021/08/15 04:58:06;;;;;;;245.82;25.83;;;;;;;19.33;70.42;100570.22;5069999;28;20071;-65
2021/08/15 05:00:34;;;;;;;267.10;27.35;;;;;;;19.28;70.12;100561.91;5052919;28;20090;-65
2021/08/15 05:03:01;;;;;;;133.55;18.85;;;;;;;19.25;70.54;100574.78;5053065;28;20049;-65
2021/08/15 05:05:28;;;;;;;230.57;25.92;;;;;;;19.23;70.22;100565.78;5057229;28;20055;-65
2021/08/15 05:07:54;;;;;;;151.52;19.85;;;;;;;19.24;70.00;100564.59;5072660;28;20102;-65
2021/08/15 05:10:22;;;;;;;186.85;21.77;;;;;;;19.26;70.01;100579.25;5071850;28;20407;-65
2021/08/15 05:12:49;;;;;;;187.13;22.65;;;;;;;19.22;70.06;100575.44;5072697;28;20052;-65
2021/08/15 05:15:16;;;;;;;166.00;22.67;;;;;;;19.20;70.06;100579.78;5070661;28;20161;-65
2021/08/15 05:17:43;;;;;;;156.88;21.58;;;;;;;19.20;70.14;100571.28;5072538;28;20542;-65
2021/08/15 05:20:10;;;;;;;171.00;22.52;;;;;;;18.95;70.12;100531.41;5072530;28;20081;-65
2021/08/15 05:22:37;;;;;;;171.50;20.30;;;;;;;19.13;69.99;100572.63;5072855;28;20080;-65
2021/08/15 05:25:05;;;;;;;148.73;18.98;;;;;;;19.05;70.24;100570.66;5071337;28;20143;-65
2021/08/15 05:27:32;;;;;;;147.98;17.15;;;;;;;18.90;70.32;100571.19;5072464;28;20068;-65
2021/08/15 05:29:59;;;;;;;142.00;16.90;;;;;;;18.93;70.34;100596.00;5072409;28;20147;-65
2021/08/15 05:32:25;;;;;;;100.40;16.92;;;;;;;18.91;70.49;100598.34;5065465;28;20148;-65
2021/08/15 05:34:52;;;;;;;100.97;17.55;;;;;;;18.92;70.83;100592.31;5052432;28;20556;-65
2021/08/15 05:37:19;;;;;;;134.63;17.83;;;;;;;18.92;70.85;100588.66;5052415;28;20076;-65
2021/08/15 05:39:46;;;;;;;69.93;17.15;;;;;;;19.00;71.02;100596.31;5064776;28;20132;-65
2021/08/15 05:42:13;;;;;;;134.60;18.42;;;;;;;19.05;70.79;100604.63;5072356;28;20068;-65
2021/08/15 05:44:40;;;;;;;165.70;21.02;;;;;;;19.09;71.26;100599.94;5072308;28;20135;-65
2021/08/15 05:47:08;;;;;;;182.23;22.67;;;;;;;19.13;70.62;100609.41;5071140;28;20131;-65
2021/08/15 05:49:35;;;;;;;210.05;26.38;;;;;;;19.16;70.49;100600.25;5047300;28;20069;-65
2021/08/15 05:52:03;;;;;;;160.50;21.90;;;;;;;19.13;70.68;100600.09;5051034;28;20124;-65
2021/08/15 05:54:29;;;;;;;102.22;15.95;;;;;;;19.19;70.08;100598.75;5061577;28;20131;-65
2021/08/15 05:56:56;;;;;;;113.55;16.67;;;;;;;19.17;70.62;100595.44;5072120;28;20131;-65
2021/08/15 05:59:23;;;;;;;81.47;16.92;;;;;;;18.92;70.54;100572.53;5072129;28;20147;-65
2021/08/15 06:01:50;;;;;;;186.07;22.35;;;;;;;19.12;70.98;100599.28;5071293;28;20040;-65
2021/08/15 06:04:18;;;;;;;140.25;19.52;;;;;;;18.83;70.55;100563.22;5072282;28;20090;-65
2021/08/15 06:06:44;;;;;;;196.98;20.33;;;;;;;18.99;70.67;100599.47;5063516;28;20068;-65
2021/08/15 06:09:11;;;;;;;67.80;12.80;;;;;;;18.85;70.77;100611.81;5051950;28;20077;-65
2021/08/15 06:11:38;;;;;;;150.18;16.13;;;;;;;18.64;71.03;100594.66;5052024;28;20080;-65
2021/08/15 06:14:05;;;;;;;120.43;16.23;;;;;;;18.59;71.06;100616.63;5051682;28;20060;-65
2021/08/15 06:16:32;;;;;;;63.83;14.05;;;;;;;18.50;70.99;100611.00;5054629;28;20049;-65
2021/08/15 06:18:59;;;;;;;142.00;14.35;;;;;;;18.40;71.07;100589.53;5055941;28;20045;-65
2021/08/15 06:21:26;;;;;;;123.05;16.75;;;;;;;18.51;71.28;100612.63;5066983;28;20428;-65
2021/08/15 06:23:53;;;;;;;120.32;15.52;;;;;;;18.39;71.53;100592.66;5049904;28;20573;-65
2021/08/15 06:26:20;;;;;;;95.05;16.52;;;;;;;18.45;71.86;100608.31;5026094;28;20136;-65
2021/08/15 06:28:47;;;;;;;97.07;16.52;;;;;;;18.32;71.85;100609.28;5055749;28;20072;-65
2021/08/15 06:31:21;;;;;;;75.68;17.33;;;;;;;18.35;72.20;100614.28;5055851;28;20052;-65
2021/08/15 06:33:48;;;;;;;65.00;14.10;;;;;;;18.37;72.43;100615.63;5070206;28;20118;-64
2021/08/15 06:36:16;;;;;;;65.07;14.65;;;;;;;18.26;72.67;100616.31;5075730;28;20051;-64
2021/08/15 06:38:43;;;;;;;74.75;15.00;;;;;;;18.18;73.05;100615.94;5075840;28;20072;-65
2021/08/15 06:41:10;;;;;;;69.45;14.52;;;;;;;18.14;73.09;100640.38;5074474;28;20739;-66
2021/08/15 06:43:37;;;;;;;59.70;13.45;;;;;;;18.08;73.02;100621.91;5074527;28;20488;-65
2021/08/15 06:46:03;;;;;;;76.15;15.38;;;;;;;18.23;72.94;100634.75;5075692;28;20523;-66
2021/08/15 06:48:30;;;;;;;75.07;16.38;;;;;;;18.29;72.71;100627.78;5075481;28;20083;-65
2021/08/15 06:50:58;;;;;;;83.93;16.63;;;;;;;18.54;72.79;100637.44;5075555;28;20552;-65
2021/08/15 06:53:27;;;;;;;86.35;16.60;;;;;;;18.65;72.69;100640.75;5074475;28;20446;-65
2021/08/15 06:55:56;;;;;;;64.20;17.13;;;;;;;18.76;72.89;100641.28;5072240;28;20493;-65
2021/08/15 06:58:23;;;;;;;58.33;20.58;;;;;;;18.57;72.89;100605.66;5067817;28;20171;-65
2021/08/15 07:00:50;;;;;;;68.80;19.40;;;;;;;19.04;72.92;100638.91;5055212;28;20132;-65
2021/08/15 07:03:17;;;;;;;88.95;19.20;;;;;;;18.95;72.59;100619.13;5053933;28;20048;-65
2021/08/15 07:05:44;;;;;;;92.68;15.93;;;;;;;19.09;72.38;100641.59;5068555;28;20052;-65
2021/08/15 07:08:11;;;;;;;59.90;13.35;;;;;;;18.94;72.98;100637.28;5074873;28;20087;-65
2021/08/15 07:10:38;;;;;;;52.13;14.52;;;;;;;18.88;72.54;100644.28;5073719;28;20080;-65
2021/08/15 07:13:06;;;;;;;50.60;15.32;;;;;;;18.80;73.17;100647.94;5057030;28;20083;-65
2021/08/15 07:15:33;;;;;;;87.90;16.70;;;;;;;18.80;72.98;100637.44;5059911;28;20072;-65
2021/08/15 07:18:00;;;;;;;48.45;16.65;;;;;;;18.76;73.21;100629.97;5055044;28;20192;-65
2021/08/15 07:20:28;;;;;;;77.55;16.45;;;;;;;18.90;72.73;100639.09;5067942;28;20067;-65
2021/08/15 07:22:55;;;;;;;125.65;18.70;;;;;;;19.02;72.82;100639.25;5074546;28;20544;-65
2021/08/15 07:25:25;;;;;;;70.68;17.10;;;;;;;19.08;72.76;100632.25;5075022;28;20050;-66
2021/08/15 07:27:51;;;;;;;61.42;18.13;;;;;;;19.18;72.58;100637.56;5073772;28;20136;-65
2021/08/15 07:30:18;;;;;;;53.55;18.58;;;;;;;19.36;72.93;100649.69;5074007;28;20080;-66
2021/08/15 07:32:54;;;;;;;87.35;19.40;;;;;;;19.35;72.78;100618.84;5073453;28;20080;-65
2021/08/15 07:35:22;;;;;;;114.93;19.52;;;;;;;19.51;72.82;100642.63;5074593;28;20041;-65
2021/08/15 07:37:49;;;;;;;59.30;18.67;;;;;;;19.49;72.75;100625.16;5052102;28;20124;-65
2021/08/15 07:40:17;;;;;;;58.17;19.60;;;;;;;19.62;72.68;100640.25;5054899;28;20041;-66
2021/08/15 07:42:46;;;;;;;53.65;17.98;;;;;;;19.74;72.61;100648.06;5054366;28;20564;-65
2021/08/15 07:45:14;;;;;;;53.65;18.92;;;;;;;19.81;72.43;100656.88;5057442;28;20090;-66
2021/08/15 07:47:41;;;;;;;40.88;16.88;;;;;;;19.86;72.16;100659.50;5074291;28;20496;-65
2021/08/15 07:50:08;;;;;;;52.60;19.25;;;;;;;19.94;72.23;100663.47;5054893;28;20080;-66
2021/08/15 07:52:35;;;;;;;67.57;17.95;;;;;;;19.94;71.77;100661.47;5054460;28;20072;-65
2021/08/15 07:55:03;;;;;;;58.65;17.17;;;;;;;19.96;71.40;100670.44;5053669;28;20084;-66
2021/08/15 07:57:30;;;;;;;48.42;16.40;;;;;;;19.90;71.50;100663.34;5036685;28;20049;-66
2021/08/15 07:59:58;;;;;;;63.00;19.67;;;;;;;20.05;71.46;100671.25;5056255;28;20178;-65
2021/08/15 08:02:25;;;;;;;53.22;19.20;;;;;;;20.23;71.76;100682.50;5073655;28;20057;-65
2021/08/15 08:04:53;;;;;;;43.33;16.90;;;;;;;20.36;71.51;100690.75;5054774;28;20456;-65
2021/08/15 08:07:22;;;;;;;44.15;18.40;;;;;;;20.53;71.38;100686.16;5065569;28;20446;-66
2021/08/15 08:09:49;;;;;;;45.10;17.88;;;;;;;20.62;71.33;100686.13;5072713;28;20080;-65
2021/08/15 08:12:17;;;;;;;44.22;18.60;;;;;;;20.75;71.06;100685.84;5073863;28;20040;-65
2021/08/15 08:14:45;;;;;;;44.35;19.35;;;;;;;20.77;70.68;100657.09;5073710;28;20049;-65
2021/08/15 08:17:13;;;;;;;40.67;18.60;;;;;;;20.96;70.46;100674.47;5072584;28;20043;-65
2021/08/15 08:19:41;;;;;;;36.83;17.05;;;;;;;20.94;70.23;100679.66;5074256;28;20123;-65
2021/08/15 08:22:10;;;;;;;44.42;18.08;;;;;;;20.65;69.87;100617.28;5070839;28;20091;-65
2021/08/15 08:24:36;;;;;;;39.53;17.25;;;;;;;20.99;69.99;100665.25;5072817;28;20128;-65
2021/08/15 08:27:04;;;;;;;40.65;18.83;;;;;;;21.14;69.67;100677.97;5074034;28;20086;-65
2021/08/15 08:29:31;;;;;;;42.60;17.55;;;;;;;21.20;69.66;100681.44;5067119;28;20099;-64
2021/08/15 08:31:58;;;;;;;46.05;20.52;;;;;;;21.06;69.25;100641.97;5053906;28;20128;-64
2021/08/15 08:34:25;;;;;;;43.97;19.83;;;;;;;21.29;69.22;100674.44;5035638;28;20132;-65
2021/08/15 08:36:52;;;;;;;51.65;19.95;;;;;;;21.26;69.38;100665.81;5053367;28;20080;-65
2021/08/15 08:39:19;;;;;;;43.72;19.27;;;;;;;21.41;68.99;100665.19;5061463;28;20531;-64
2021/08/15 08:41:46;;;;;;;39.75;18.17;;;;;;;21.48;68.90;100659.75;5053351;28;20136;-65
2021/08/15 08:44:13;;;;;;;54.92;20.50;;;;;;;21.59;68.67;100659.31;5053365;28;20081;-64
2021/08/15 08:46:42;;;;;;;47.58;21.95;;;;;;;21.71;68.27;100657.31;5053609;28;20452;-64
2021/08/15 08:49:13;;;;;;;49.00;19.40;;;;;;;21.92;67.93;100662.06;5053201;28;20053;-65
2021/08/15 08:51:40;;;;;;;42.28;19.38;;;;;;;22.09;67.64;100638.25;5053483;28;20136;-65
2021/08/15 08:54:25;;;;;;;43.42;19.58;;;;;;;22.40;67.12;100649.84;5068005;28;20056;-65
2021/08/15 08:56:53;;;;;;;39.30;18.67;;;;;;;22.57;66.89;100639.38;5063519;28;20544;-65
2021/08/15 08:59:20;;;;;;;38.67;19.92;;;;;;;22.93;65.83;100642.13;5052952;28;20044;-65
2021/08/15 09:01:47;;;;;;;39.10;18.60;;;;;;;23.18;65.61;100637.16;5052966;28;20049;-65
2021/08/15 09:04:15;;;;;;;52.65;22.92;;;;;;;23.46;65.10;100649.69;5052794;28;20055;-65
2021/08/15 09:06:43;;;;;;;48.50;23.23;;;;;;;23.72;64.19;100652.03;5057730;28;20064;-65
2021/08/15 09:09:12;;;;;;;48.15;21.48;;;;;;;23.99;63.87;100650.28;5072739;28;20079;-65
2021/08/15 09:11:40;;;;;;;38.30;18.98;;;;;;;24.26;63.41;100637.91;5072158;28;20068;-64
2021/08/15 09:14:10;;;;;;;40.80;20.20;;;;;;;24.77;62.36;100646.44;5071691;28;20564;-64
2021/08/15 09:16:50;;;;;;;;;;;;;;;25.13;62.88;100649.22;5071934;28;20132;-64
2021/08/15 09:19:24;;;;;;;35.67;17.88;;;;;;;25.83;60.77;100648.94;5072997;28;19920;-64
2021/08/15 09:21:51;;;;;;;38.13;18.42;;;;;;;26.52;58.62;100631.66;5072803;28;20407;-64
2021/08/15 09:24:18;;;;;;;34.13;18.70;;;;;;;27.31;57.35;100655.63;5054926;28;20127;-64
2021/08/15 09:27:07;;;;;;;38.22;20.48;;;;;;;27.81;55.91;100656.16;5061130;28;20470;-64
2021/08/15 09:29:34;;;;;;;34.45;18.60;;;;;;;28.16;54.59;100649.88;5052551;28;20072;-64
2021/08/15 09:32:02;;;;;;;36.58;19.13;;;;;;;28.53;53.57;100660.44;5071042;28;20045;-63
2021/08/15 09:34:29;;;;;;;23.35;14.73;;;;;;;28.81;52.71;100656.91;5054523;28;20076;-64
2021/08/15 09:36:56;;;;;;;31.33;16.85;;;;;;;29.09;52.05;100669.78;5071238;28;20131;-64
2021/08/15 09:39:34;;;;;;;26.83;15.93;;;;;;;29.18;51.92;100652.97;5071089;28;20072;-64
2021/08/15 09:42:02;;;;;;;26.50;15.75;;;;;;;29.52;50.41;100657.19;5071719;28;20098;-63
2021/08/15 09:44:31;;;;;;;28.75;15.20;;;;;;;29.87;49.39;100664.25;5071997;28;20151;-63
2021/08/15 09:47:11;;;;;;;24.35;13.63;;;;;;;30.18;48.78;100671.25;5071114;28;20052;-64
2021/08/15 09:49:45;;;;;;;25.52;14.80;;;;;;;30.58;48.01;100668.34;5071215;28;20369;-64
2021/08/15 09:52:17;;;;;;;27.88;15.02;;;;;;;30.76;46.78;100665.44;5071995;28;20076;-64
2021/08/15 09:55:00;;;;;;;26.17;13.75;;;;;;;30.85;47.32;100672.41;5078540;28;20515;-64
2021/08/15 09:57:32;;;;;;;24.10;14.73;;;;;;;30.97;46.78;100661.66;5092585;28;20123;-64
2021/08/15 09:59:59;;;;;;;22.85;13.40;;;;;;;31.11;46.19;100658.72;5065030;28;20044;-64
2021/08/15 10:02:27;;;;;;;22.15;13.27;;;;;;;31.42;45.56;100668.50;5072183;28;20079;-65
2021/08/15 10:04:55;;;;;;;26.45;14.75;;;;;;;31.91;44.37;100660.75;5062007;28;20060;-63
2021/08/15 10:07:24;;;;;;;22.33;12.80;;;;;;;32.33;44.14;100665.31;5052309;28;20049;-65
2021/08/15 10:09:51;;;;;;;;;;;;;;;32.38;46.56;100663.22;5052467;28;20076;-64
2021/08/15 10:12:18;;;;;;;18.67;10.95;;;;;;;32.88;43.56;100671.38;5052303;28;20323;-64
2021/08/15 10:14:45;;;;;;;17.98;10.60;;;;;;;33.02;42.62;100666.28;5034105;28;20247;-64
2021/08/15 10:17:17;;;;;;;16.98;10.65;;;;;;;33.05;41.97;100667.47;5051982;28;20049;-64
2021/08/15 10:20:01;;;;;;;18.60;10.90;;;;;;;33.18;42.41;100665.66;5069351;28;20523;-64
2021/08/15 10:22:32;;;;;;;18.95;11.32;;;;;;;33.33;41.21;100646.03;5057340;28;20080;-64
2021/08/15 10:25:04;;;;;;;20.23;12.15;;;;;;;33.62;40.74;100665.91;5068688;28;20084;-65
2021/08/15 10:27:43;;;;;;;19.48;11.20;;;;;;;33.65;41.00;100667.94;5070793;28;20131;-64
2021/08/15 10:30:13;;;;;;;;;;;;;;;33.36;42.99;100677.00;5072190;28;20132;-64
2021/08/15 10:32:54;;;;;;;22.40;12.13;;;;;;;33.72;41.33;100676.50;5070937;28;20291;-64
2021/08/15 10:35:28;;;;;;;19.02;11.20;;;;;;;33.93;40.35;100689.84;5071648;28;20135;-65
2021/08/15 10:37:59;;;;;;;21.08;12.07;;;;;;;34.24;39.56;100675.28;5070271;28;20080;-64
2021/08/15 10:40:41;;;;;;;19.27;10.98;;;;;;;34.31;39.60;100675.97;5051817;28;20477;-64
2021/08/15 10:43:09;;;;;;;16.52;11.25;;;;;;;34.39;38.47;100673.75;5051555;28;20509;-65
2021/08/15 10:45:37;;;;;;;19.13;11.75;;;;;;;34.28;38.76;100662.34;5062090;28;20583;-65
2021/08/15 10:48:04;;;;;;;19.53;11.67;;;;;;;34.33;38.51;100679.25;5071760;28;20083;-65
2021/08/15 10:50:47;;;;;;;16.45;11.43;;;;;;;34.42;38.63;100669.97;5046603;28;20091;-65
2021/08/15 10:53:29;;;;;;;20.75;10.65;;;;;;;34.60;38.27;100673.41;5051252;28;20449;-64
2021/08/15 10:55:57;;;;;;;17.75;9.38;;;;;;;34.86;37.70;100682.41;5051532;28;20052;-65
2021/08/15 10:58:38;;;;;;;17.38;8.70;;;;;;;34.89;37.15;100655.41;5051720;28;20132;-64
2021/08/15 11:01:10;;;;;;;13.15;7.72;;;;;;;35.41;36.46;100672.16;5051474;28;20128;-63
2021/08/15 11:03:40;;;;;;;13.18;7.65;;;;;;;36.28;35.04;100660.13;5059137;28;20109;-64
2021/08/15 11:06:29;;;;;;;13.35;7.68;;;;;;;36.75;34.08;100660.53;5075306;28;20136;-64
2021/08/15 11:09:06;;;;;;;11.55;7.50;;;;;;;36.42;33.72;100630.66;5055106;28;20073;-64
2021/08/15 11:11:35;;;;;;;13.63;7.93;;;;;;;36.43;33.64;100661.38;5055633;28;20463;-64
2021/08/15 11:14:21;;;;;;;15.07;8.02;;;;;;;36.20;34.63;100664.50;5072828;28;20048;-64
2021/08/15 11:16:54;;;;;;;16.35;8.10;;;;;;;36.15;33.89;100651.31;5074971;28;20101;-64
2021/08/15 11:19:20;;;;;;;15.60;8.05;;;;;;;36.08;34.54;100663.16;5073802;28;20124;-64